createdAt,value
2018-03-23T00:01:01.639Z,43.77
2018-03-23T00:03:30.229Z,45.17
2018-03-23T00:05:58.743Z,42.63
2018-03-23T00:08:27.208Z,41.00
2018-03-23T00:10:56.804Z,39.27
2018-03-23T00:13:26.223Z,37.13
2018-03-23T00:15:56.574Z,46.43
2018-03-23T00:18:25.021Z,40.70
2018-03-23T00:20:54.424Z,38.67
2018-03-23T00:23:23.844Z,43.83
2018-03-23T00:25:52.476Z,41.40
2018-03-23T00:28:21.183Z,49.07
2018-03-23T00:30:49.798Z,42.87
2018-03-23T00:33:18.532Z,45.27
2018-03-23T00:35:47.264Z,40.60
2018-03-23T00:38:16.969Z,44.60
2018-03-23T00:40:47.059Z,43.70
2018-03-23T00:43:15.665Z,40.93
2018-03-23T00:45:44.964Z,43.73
2018-03-23T00:48:14.284Z,45.27
2018-03-23T00:50:42.737Z,44.57
2018-03-23T00:53:14.008Z,44.20
2018-03-23T00:55:42.869Z,45.00
2018-03-23T00:58:11.983Z,47.43
2018-03-23T01:00:41.386Z,44.90
2018-03-23T01:03:10.888Z,46.77
2018-03-23T01:05:41.310Z,46.37
2018-03-23T01:08:10.786Z,47.80
2018-03-23T01:10:39.311Z,43.77
2018-03-23T01:13:08.586Z,45.77
2018-03-23T01:15:38.079Z,43.67
2018-03-23T01:18:07.022Z,48.10
2018-03-23T01:20:35.797Z,44.77
2018-03-23T01:23:04.548Z,44.20
2018-03-23T01:25:34.320Z,42.07
2018-03-23T01:28:02.961Z,44.33
2018-03-23T01:30:32.446Z,43.33
2018-03-23T01:33:01.266Z,41.87
2018-03-23T01:35:30.866Z,43.43
2018-03-23T01:38:00.176Z,44.33
2018-03-23T01:40:29.546Z,40.50
2018-03-23T01:42:59.002Z,45.27
2018-03-23T01:45:27.662Z,45.67
2018-03-23T01:47:56.303Z,41.40
2018-03-23T01:50:26.664Z,41.03
2018-03-23T01:52:55.345Z,49.03
2018-03-23T01:55:25.805Z,46.03
2018-03-23T01:57:55.651Z,40.90
2018-03-23T02:00:24.595Z,40.87
2018-03-23T02:02:53.482Z,38.57
2018-03-23T02:05:21.808Z,44.23
2018-03-23T02:07:49.691Z,43.13
2018-03-23T02:10:17.738Z,40.17
2018-03-23T02:12:45.650Z,49.17
2018-03-23T02:15:14.393Z,40.77
2018-03-23T02:17:42.508Z,41.80
2018-03-23T02:20:11.357Z,44.60
2018-03-23T02:22:39.341Z,50.67
2018-03-23T02:25:08.109Z,48.30
2018-03-23T02:27:36.393Z,47.43
2018-03-23T02:30:04.614Z,41.40
2018-03-23T02:32:33.349Z,49.43
2018-03-23T02:35:01.348Z,42.07
2018-03-23T02:37:30.100Z,48.70
2018-03-23T02:39:58.299Z,45.20
2018-03-23T02:42:26.448Z,43.67
2018-03-23T02:44:54.553Z,45.03
2018-03-23T02:47:22.693Z,46.80
2018-03-23T02:49:50.810Z,49.10
2018-03-23T02:52:19.656Z,44.00
2018-03-23T02:54:47.630Z,45.37
2018-03-23T02:57:15.713Z,45.40
2018-03-23T02:59:43.460Z,46.13
2018-03-23T03:02:11.530Z,45.23
2018-03-23T03:04:39.500Z,42.53
2018-03-23T03:07:07.695Z,49.00
2018-03-23T03:09:36.258Z,43.90
2018-03-23T03:12:04.274Z,46.37
2018-03-23T03:14:32.803Z,44.40
2018-03-23T03:17:00.777Z,47.90
2018-03-23T03:19:28.744Z,44.33
2018-03-23T03:21:57.174Z,42.97
2018-03-23T03:24:25.912Z,39.17
2018-03-23T03:26:53.879Z,43.57
2018-03-23T03:29:21.866Z,40.17
2018-03-23T03:31:49.836Z,41.93
2018-03-23T03:34:17.858Z,42.77
2018-03-23T03:36:45.757Z,44.27
2018-03-23T03:39:14.052Z,42.47
2018-03-23T03:41:41.998Z,42.27
2018-03-23T03:44:09.733Z,43.67
2018-03-23T03:46:37.828Z,44.53
2018-03-23T03:49:05.929Z,42.10
2018-03-23T03:51:33.664Z,44.60
2018-03-23T03:54:01.833Z,43.00
2018-03-23T03:56:29.825Z,45.40
2018-03-23T03:58:59.228Z,44.20
2018-03-23T04:01:27.296Z,48.03
2018-03-23T04:03:55.452Z,43.23
2018-03-23T04:06:23.522Z,43.80
2018-03-23T04:08:51.288Z,44.57
2018-03-23T04:11:19.253Z,44.00
2018-03-23T04:13:46.925Z,42.07
2018-03-23T04:16:14.698Z,45.40
2018-03-23T04:18:42.853Z,45.40
2018-03-23T04:21:10.740Z,46.77
2018-03-23T04:23:38.996Z,48.87
2018-03-23T04:26:06.854Z,48.43
2018-03-23T04:28:34.958Z,45.03
2018-03-23T04:31:02.902Z,44.27
2018-03-23T04:33:30.768Z,42.77
2018-03-23T04:35:58.734Z,50.73
2018-03-23T04:38:26.698Z,44.43
2018-03-23T04:40:54.579Z,43.77
2018-03-23T04:43:22.579Z,48.37
2018-03-23T04:45:51.324Z,44.47
2018-03-23T04:48:19.518Z,46.67
2018-03-23T04:50:47.174Z,46.40
2018-03-23T04:53:16.868Z,45.00
2018-03-23T04:55:44.941Z,42.57
2018-03-23T04:58:12.919Z,49.50
2018-03-23T05:00:40.998Z,45.30
2018-03-23T05:03:10.858Z,40.40
2018-03-23T05:05:38.858Z,41.37
2018-03-23T05:08:06.623Z,46.73
2018-03-23T05:10:34.294Z,42.40
2018-03-23T05:13:02.173Z,50.23
2018-03-23T05:15:30.238Z,41.30
2018-03-23T05:17:59.014Z,47.10
2018-03-23T05:20:27.222Z,43.47
2018-03-23T05:22:55.904Z,45.10
2018-03-23T05:25:24.449Z,47.07
2018-03-23T05:27:52.424Z,49.03
2018-03-23T05:30:20.399Z,50.17
2018-03-23T05:32:48.273Z,46.70
2018-03-23T05:35:16.528Z,50.87
2018-03-23T05:37:44.505Z,95.03
2018-03-23T05:40:12.560Z,47.50
2018-03-23T05:42:40.438Z,52.10
2018-03-23T05:45:08.599Z,47.57
2018-03-23T05:47:36.373Z,49.27
2018-03-23T05:50:04.653Z,45.57
2018-03-23T05:52:32.620Z,53.40
2018-03-23T05:55:00.622Z,55.87
2018-03-23T05:57:30.324Z,50.57
2018-03-23T05:59:58.418Z,51.40
2018-03-23T06:02:27.008Z,58.60
2018-03-23T06:04:55.016Z,51.33
2018-03-23T06:07:23.290Z,54.63
2018-03-23T06:09:51.106Z,50.57
2018-03-23T06:12:19.844Z,54.33
2018-03-23T06:14:47.916Z,52.30
2018-03-23T06:17:15.778Z,57.70
2018-03-23T06:19:43.746Z,51.83
2018-03-23T06:22:11.618Z,54.27
2018-03-23T06:24:39.610Z,51.90
2018-03-23T06:27:09.393Z,56.07
2018-03-23T06:29:37.481Z,55.50
2018-03-23T06:32:05.336Z,56.47
2018-03-23T06:34:33.409Z,60.10
2018-03-23T06:37:01.385Z,55.33
2018-03-23T06:39:29.240Z,56.20
2018-03-23T06:41:57.412Z,54.27
2018-03-23T06:44:25.738Z,59.27
2018-03-23T06:46:53.684Z,61.67
2018-03-23T06:49:21.546Z,58.30
2018-03-23T06:51:49.695Z,54.83
2018-03-23T06:54:17.563Z,49.67
2018-03-23T06:56:46.455Z,59.87
2018-03-23T06:59:14.417Z,55.60
2018-03-23T07:01:42.485Z,58.40
2018-03-23T07:04:10.299Z,51.47
2018-03-23T07:06:39.149Z,56.03
2018-03-23T07:09:07.353Z,62.00
2018-03-23T07:11:36.106Z,52.30
2018-03-23T07:14:04.200Z,59.77
2018-03-23T07:16:32.040Z,53.80
2018-03-23T07:19:00.009Z,54.43
2018-03-23T07:21:27.896Z,60.57
2018-03-23T07:23:57.828Z,54.07
2018-03-23T07:26:26.578Z,56.47
2018-03-23T07:28:54.352Z,58.17
2018-03-23T07:31:22.233Z,64.37
2018-03-23T07:33:50.518Z,59.07
2018-03-23T07:36:19.176Z,61.20
2018-03-23T07:38:47.448Z,51.63
2018-03-23T07:41:15.626Z,48.83
2018-03-23T07:43:44.608Z,56.97
2018-03-23T07:46:12.378Z,50.83
2018-03-23T07:48:40.345Z,54.37
2018-03-23T07:51:08.622Z,55.93
2018-03-23T07:53:37.610Z,53.80
2018-03-23T07:56:06.083Z,51.30
2018-03-23T07:58:34.060Z,50.63
2018-03-23T08:01:04.440Z,54.93
2018-03-23T08:03:33.588Z,55.77
2018-03-23T08:06:01.449Z,51.90
2018-03-23T08:08:29.571Z,49.20
2018-03-23T08:10:58.413Z,77.87
2018-03-23T08:13:26.408Z,59.10
2018-03-23T08:15:55.268Z,66.87
2018-03-23T08:18:23.438Z,47.67
2018-03-23T08:20:51.514Z,50.13
2018-03-23T08:23:19.686Z,50.27
2018-03-23T08:25:48.165Z,48.07
2018-03-23T08:28:16.266Z,46.93
2018-03-23T08:30:44.306Z,56.63
2018-03-23T08:33:12.481Z,42.50
2018-03-23T08:35:40.667Z,43.40
2018-03-23T08:38:10.061Z,38.57
2018-03-23T08:40:37.921Z,43.30
2018-03-23T08:43:05.891Z,41.07
2018-03-23T08:45:33.656Z,38.43
2018-03-23T08:48:01.766Z,37.97
2018-03-23T08:50:30.321Z,36.70
2018-03-23T08:52:58.243Z,33.43
2018-03-23T08:55:26.057Z,36.73
2018-03-23T08:57:54.018Z,37.87
2018-03-23T09:00:21.983Z,33.90
2018-03-23T09:02:50.382Z,35.70
2018-03-23T09:05:18.307Z,40.20
2018-03-23T09:07:46.405Z,34.13
2018-03-23T09:10:14.157Z,38.33
2018-03-23T09:12:42.641Z,36.03
2018-03-23T09:15:10.441Z,35.20
2018-03-23T09:17:39.612Z,33.57
2018-03-23T09:20:07.473Z,37.30
2018-03-23T09:22:35.462Z,42.27
2018-03-23T09:25:03.308Z,35.03
2018-03-23T09:27:31.470Z,38.17
2018-03-23T09:29:59.239Z,39.37
2018-03-23T09:32:27.008Z,44.30
2018-03-23T09:34:54.972Z,40.27
2018-03-23T09:37:23.243Z,38.60
2018-03-23T09:39:50.965Z,31.43
2018-03-23T09:42:19.498Z,30.73
2018-03-23T09:44:47.462Z,29.20
2018-03-23T09:47:15.142Z,27.47
2018-03-23T09:49:43.098Z,26.00
2018-03-23T09:52:12.082Z,25.27
2018-03-23T09:54:41.078Z,27.13
2018-03-23T09:57:09.111Z,27.17
2018-03-23T09:59:37.850Z,27.07
2018-03-23T10:02:05.797Z,28.97
2018-03-23T10:04:33.767Z,28.97
2018-03-23T10:07:01.544Z,27.57
2018-03-23T10:09:29.502Z,26.43
2018-03-23T10:11:57.176Z,28.07
2018-03-23T10:14:26.153Z,28.83
2018-03-23T10:16:54.438Z,30.90
2018-03-23T10:19:22.299Z,29.63
2018-03-23T10:21:50.410Z,28.47
2018-03-23T10:24:19.365Z,29.80
2018-03-23T10:26:47.328Z,30.60
2018-03-23T10:29:15.194Z,30.80
2018-03-23T10:31:43.162Z,31.60
2018-03-23T10:34:11.083Z,29.87
2018-03-23T10:36:40.025Z,29.70
2018-03-23T10:39:08.709Z,31.80
2018-03-23T10:41:36.465Z,33.43
2018-03-23T10:44:04.344Z,31.53
2018-03-23T10:46:32.653Z,32.60
2018-03-23T10:49:03.582Z,32.87
2018-03-23T10:51:32.645Z,30.97
2018-03-23T10:54:00.885Z,30.40
2018-03-23T10:56:29.207Z,33.10
2018-03-23T10:58:57.367Z,33.77
2018-03-23T11:01:32.632Z,32.77
2018-03-23T11:04:01.089Z,34.63
2018-03-23T11:06:28.884Z,34.47
2018-03-23T11:08:57.034Z,34.00
2018-03-23T11:11:25.119Z,32.10
2018-03-23T11:13:54.918Z,33.43
2018-03-23T11:16:22.787Z,35.17
2018-03-23T11:18:51.576Z,32.67
2018-03-23T11:21:19.744Z,31.80
2018-03-23T11:23:49.256Z,34.33
2018-03-23T11:26:17.342Z,32.47
2018-03-23T11:28:45.089Z,32.13
2018-03-23T11:31:15.451Z,33.37
2018-03-23T11:33:44.285Z,34.33
2018-03-23T11:36:11.984Z,34.10
2018-03-23T11:38:40.017Z,33.13
2018-03-23T11:41:09.129Z,33.20
2018-03-23T11:43:37.087Z,31.10
2018-03-23T11:46:05.066Z,31.83
2018-03-23T11:48:32.839Z,31.67
2018-03-23T11:51:00.690Z,31.10
2018-03-23T11:53:28.759Z,33.77
2018-03-23T11:55:57.662Z,35.27
2018-03-23T11:58:27.452Z,30.70
2018-03-23T12:00:55.738Z,32.77
2018-03-23T12:03:23.825Z,34.17
2018-03-23T12:05:51.676Z,34.27
2018-03-23T12:08:19.860Z,31.50
2018-03-23T12:10:47.821Z,33.07
2018-03-23T12:13:15.791Z,29.90
2018-03-23T12:15:43.759Z,30.43
2018-03-23T12:18:11.724Z,29.53
2018-03-23T12:20:39.713Z,31.23
2018-03-23T12:23:07.657Z,30.23
2018-03-23T12:25:35.743Z,29.93
2018-03-23T12:28:03.710Z,27.63
2018-03-23T12:30:31.562Z,27.40
2018-03-23T12:32:59.330Z,27.70
2018-03-23T12:35:27.256Z,28.13
2018-03-23T12:37:55.283Z,27.83
2018-03-23T12:40:23.342Z,26.70
2018-03-23T12:42:51.170Z,26.10
2018-03-23T12:45:19.384Z,33.83
2018-03-23T12:47:47.251Z,28.90
2018-03-23T12:50:15.324Z,25.80
2018-03-23T12:52:43.387Z,27.80
2018-03-23T12:55:11.285Z,26.80
2018-03-23T12:57:39.217Z,26.50
2018-03-23T13:00:07.568Z,28.33
2018-03-23T13:02:35.772Z,32.63
2018-03-23T13:05:04.045Z,32.03
2018-03-23T13:07:33.259Z,31.40
2018-03-23T13:10:01.315Z,30.93
2018-03-23T13:12:29.100Z,30.87
2018-03-23T13:14:57.145Z,29.03
2018-03-23T13:17:24.816Z,28.57
2018-03-23T13:19:53.190Z,30.40
2018-03-23T13:22:21.176Z,29.93
2018-03-23T13:24:49.390Z,30.00
2018-03-23T13:27:18.222Z,32.87
2018-03-23T13:29:46.603Z,30.50
2018-03-23T13:32:14.470Z,31.20
2018-03-23T13:34:42.643Z,31.70
2018-03-23T13:37:10.716Z,29.60
2018-03-23T13:39:38.883Z,30.30
2018-03-23T13:42:06.662Z,29.87
2018-03-23T13:44:34.925Z,29.87
2018-03-23T13:47:03.303Z,28.87
2018-03-23T13:49:30.983Z,30.93
2018-03-23T13:51:58.766Z,31.20
2018-03-23T13:54:27.644Z,31.30
2018-03-23T13:56:56.764Z,36.13
2018-03-23T13:59:31.032Z,36.73
2018-03-23T14:01:59.205Z,35.43
2018-03-23T14:04:27.178Z,35.30
2018-03-23T14:06:55.347Z,46.37
2018-03-23T14:09:23.108Z,43.53
2018-03-23T14:11:51.110Z,47.23
2018-03-23T14:14:19.368Z,42.77
2018-03-23T14:16:47.122Z,43.17
2018-03-23T14:19:15.104Z,45.87
2018-03-23T14:21:43.004Z,41.77
2018-03-23T14:24:11.738Z,46.77
2018-03-23T14:26:39.919Z,36.80
2018-03-23T14:29:07.907Z,29.90
2018-03-23T14:31:35.952Z,27.47
2018-03-23T14:34:03.920Z,27.23
2018-03-23T14:36:32.008Z,27.00
2018-03-23T14:39:00.062Z,25.27
2018-03-23T14:41:28.139Z,24.60
2018-03-23T14:43:56.204Z,25.73
2018-03-23T14:46:24.192Z,24.40
2018-03-23T14:48:52.052Z,21.97
2018-03-23T14:51:19.914Z,23.17
2018-03-23T14:53:47.810Z,23.33
2018-03-23T14:56:16.686Z,24.57
2018-03-23T14:58:50.161Z,23.70
2018-03-23T15:01:18.349Z,24.73
2018-03-23T15:03:46.464Z,25.00
2018-03-23T15:06:14.269Z,20.03
2018-03-23T15:08:42.032Z,20.27
2018-03-23T15:11:09.900Z,19.70
2018-03-23T15:13:37.864Z,21.07
2018-03-23T15:16:06.005Z,21.23
2018-03-23T15:18:33.907Z,21.37
2018-03-23T15:21:01.782Z,21.40
2018-03-23T15:23:29.638Z,24.43
2018-03-23T15:25:57.822Z,23.10
2018-03-23T15:28:25.705Z,26.23
2018-03-23T15:30:54.567Z,23.70
2018-03-23T15:33:22.436Z,24.17
2018-03-23T15:35:50.302Z,23.93
2018-03-23T15:38:18.439Z,26.70
2018-03-23T15:40:46.659Z,22.60
2018-03-23T15:43:14.616Z,26.53
2018-03-23T15:45:42.587Z,28.43
2018-03-23T15:48:10.686Z,26.90
2018-03-23T15:50:38.629Z,28.17
2018-03-23T15:53:06.593Z,36.27
2018-03-23T15:55:34.689Z,37.23
2018-03-23T15:58:02.742Z,33.63
2018-03-23T16:00:30.827Z,27.40
2018-03-23T16:02:58.998Z,27.60
2018-03-23T16:05:27.265Z,23.73
2018-03-23T16:07:55.669Z,28.80
2018-03-23T16:10:24.869Z,28.43
2018-03-23T16:12:54.145Z,26.97
2018-03-23T16:15:22.620Z,24.97
2018-03-23T16:17:50.663Z,25.50
2018-03-23T16:20:18.766Z,26.67
2018-03-23T16:22:46.945Z,31.80
2018-03-23T16:25:14.901Z,33.20
2018-03-23T16:27:42.860Z,35.00
2018-03-23T16:30:11.022Z,24.70
2018-03-23T16:32:39.866Z,25.83
2018-03-23T16:35:08.747Z,30.07
2018-03-23T16:37:36.900Z,28.27
2018-03-23T16:40:05.835Z,31.83
2018-03-23T16:42:35.101Z,25.83
2018-03-23T16:45:03.372Z,28.40
2018-03-23T16:47:31.545Z,32.20
2018-03-23T16:49:59.900Z,27.90
2018-03-23T16:52:29.100Z,27.33
2018-03-23T16:54:57.306Z,27.00
2018-03-23T16:57:26.380Z,28.93
2018-03-23T16:59:55.223Z,28.00
2018-03-23T17:02:23.540Z,27.53
2018-03-23T17:04:51.619Z,29.50
2018-03-23T17:07:19.988Z,31.73
2018-03-23T17:09:48.460Z,30.57
2018-03-23T17:12:16.988Z,31.97
2018-03-23T17:14:46.069Z,31.00
2018-03-23T17:17:14.588Z,29.40
2018-03-23T17:19:43.021Z,35.87
2018-03-23T17:22:12.533Z,33.90
2018-03-23T17:24:40.985Z,40.73
2018-03-23T17:27:09.432Z,37.20
2018-03-23T17:29:37.940Z,43.67
2018-03-23T17:32:06.151Z,45.50
2018-03-23T17:34:34.625Z,41.17
2018-03-23T17:37:02.989Z,41.17
2018-03-23T17:39:31.300Z,42.33
2018-03-23T17:42:00.380Z,39.40
2018-03-23T17:44:29.660Z,43.10
2018-03-23T17:46:57.524Z,35.30
2018-03-23T17:49:25.796Z,44.03
2018-03-23T17:51:53.760Z,42.10
2018-03-23T17:54:21.632Z,42.17
2018-03-23T17:56:50.131Z,42.80
2018-03-23T17:59:18.084Z,54.43
2018-03-23T18:01:45.945Z,53.40
2018-03-23T18:04:14.223Z,65.80
2018-03-23T18:06:42.394Z,43.00
2018-03-23T18:09:10.292Z,37.50
2018-03-23T18:11:38.253Z,33.17
2018-03-23T18:14:06.508Z,29.87
2018-03-23T18:16:34.472Z,31.50
2018-03-23T18:19:02.372Z,31.10
2018-03-23T18:21:31.060Z,30.93
2018-03-23T18:23:59.813Z,28.50
2018-03-23T18:26:27.778Z,30.37
2018-03-23T18:28:55.968Z,34.57
2018-03-23T18:31:24.943Z,34.10
2018-03-23T18:33:52.912Z,34.37
2018-03-23T18:36:20.703Z,38.70
2018-03-23T18:38:48.557Z,35.93
2018-03-23T18:41:16.457Z,33.80
2018-03-23T18:43:45.094Z,33.00
2018-03-23T18:46:13.173Z,32.10
2018-03-23T18:48:41.042Z,30.10
2018-03-23T18:51:08.925Z,29.30
2018-03-23T18:53:36.868Z,27.73
2018-03-23T18:56:05.552Z,28.30
2018-03-23T18:58:33.743Z,27.40
2018-03-23T19:01:02.644Z,30.87
2018-03-23T19:03:30.308Z,28.93
2018-03-23T19:05:58.146Z,26.07
2018-03-23T19:08:26.464Z,25.77
2018-03-23T19:10:55.413Z,30.03
2018-03-23T19:13:23.584Z,28.50
2018-03-23T19:15:51.457Z,29.80
2018-03-23T19:18:19.543Z,26.80
2018-03-23T19:20:48.441Z,26.40
2018-03-23T19:23:16.282Z,29.20
2018-03-23T19:25:44.354Z,33.57
2018-03-23T19:28:12.216Z,36.60
2018-03-23T19:30:40.388Z,29.03
2018-03-23T19:33:08.573Z,32.30
2018-03-23T19:35:36.559Z,31.33
2018-03-23T19:38:05.018Z,27.20
2018-03-23T19:40:33.402Z,26.50
2018-03-23T19:43:01.566Z,25.83
2018-03-23T19:45:29.537Z,24.90
2018-03-23T19:47:57.504Z,26.80
2018-03-23T19:50:25.987Z,25.70
2018-03-23T19:52:54.258Z,25.33
2018-03-23T19:55:23.540Z,28.27
2018-03-23T19:57:51.425Z,26.70
2018-03-23T20:00:19.493Z,24.67
2018-03-23T20:02:47.273Z,24.80
2018-03-23T20:05:16.249Z,25.93
2018-03-23T20:07:44.010Z,22.33
2018-03-23T20:10:11.782Z,30.30
2018-03-23T20:12:39.868Z,27.03
2018-03-23T20:15:08.639Z,32.43
2018-03-23T20:17:42.233Z,25.77
2018-03-23T20:20:15.940Z,24.57
2018-03-23T20:22:43.909Z,24.53
2018-03-23T20:25:11.874Z,25.30
2018-03-23T20:27:45.473Z,26.53
2018-03-23T20:30:13.240Z,26.27
2018-03-23T20:32:41.106Z,25.90
2018-03-23T20:35:09.092Z,27.20
2018-03-23T20:37:37.351Z,31.77
2018-03-23T20:40:05.315Z,36.10
2018-03-23T20:42:33.421Z,33.23
2018-03-23T20:45:01.274Z,30.03
2018-03-23T20:47:29.124Z,31.07
2018-03-23T20:49:57.294Z,31.87
2018-03-23T20:52:25.263Z,35.37
2018-03-23T20:54:53.234Z,35.00
2018-03-23T20:57:21.199Z,34.37
2018-03-23T20:59:49.387Z,35.73
2018-03-23T21:02:17.344Z,34.20
2018-03-23T21:04:45.310Z,34.37
2018-03-23T21:07:13.277Z,36.40
2018-03-23T21:09:41.565Z,38.03
2018-03-23T21:12:09.632Z,32.67
2018-03-23T21:14:37.494Z,35.40
2018-03-23T21:17:05.389Z,33.90
2018-03-23T21:19:34.864Z,32.13
2018-03-23T21:22:03.948Z,35.30
2018-03-23T21:24:32.130Z,35.10
2018-03-23T21:27:00.106Z,40.27
2018-03-23T21:29:27.978Z,40.87
2018-03-23T21:31:55.845Z,37.47
2018-03-23T21:34:23.822Z,38.13
2018-03-23T21:36:52.074Z,36.33
2018-03-23T21:39:19.843Z,38.47
2018-03-23T21:41:47.808Z,35.17
2018-03-23T21:44:15.796Z,36.50
2018-03-23T21:46:43.538Z,38.70
2018-03-23T21:49:11.509Z,35.97
2018-03-23T21:51:39.483Z,35.40
2018-03-23T21:54:07.343Z,37.23
2018-03-23T21:56:36.334Z,36.90
2018-03-23T21:59:04.403Z,37.93
2018-03-23T22:01:32.389Z,39.30
2018-03-23T22:04:00.154Z,41.80
2018-03-23T22:06:28.318Z,36.20
2018-03-23T22:08:56.182Z,40.83
2018-03-23T22:11:24.479Z,44.93
2018-03-23T22:13:52.423Z,41.37
2018-03-23T22:16:20.190Z,47.40
2018-03-23T22:18:48.255Z,49.37
2018-03-23T22:21:16.232Z,45.60
2018-03-23T22:23:44.202Z,53.43
2018-03-23T22:26:11.953Z,44.53
2018-03-23T22:28:40.126Z,41.73
2018-03-23T22:31:07.783Z,46.50
2018-03-23T22:33:35.677Z,42.47
2018-03-23T22:36:03.522Z,44.10
2018-03-23T22:38:31.536Z,39.57
2018-03-23T22:41:00.483Z,37.73
2018-03-23T22:43:28.353Z,37.63
2018-03-23T22:45:56.115Z,38.93
2018-03-23T22:48:23.978Z,41.03
2018-03-23T22:50:52.168Z,38.53
2018-03-23T22:53:20.417Z,37.97
2018-03-23T22:55:48.207Z,40.13
2018-03-23T22:58:15.959Z,41.60
2018-03-23T23:00:43.826Z,39.27
2018-03-23T23:03:11.697Z,36.67
2018-03-23T23:05:39.770Z,41.13
2018-03-23T23:08:07.763Z,38.03
2018-03-23T23:10:36.518Z,38.77
2018-03-23T23:13:04.589Z,45.70
2018-03-23T23:15:32.663Z,39.70
2018-03-23T23:18:00.837Z,42.93
2018-03-23T23:20:28.800Z,37.87
2018-03-23T23:22:56.879Z,43.33
2018-03-23T23:25:24.853Z,42.87
2018-03-23T23:27:52.814Z,42.73
2018-03-23T23:30:20.883Z,41.47
2018-03-23T23:32:48.854Z,39.23
2018-03-23T23:35:16.613Z,36.70
2018-03-23T23:37:44.583Z,37.57
2018-03-23T23:40:12.578Z,39.17
2018-03-23T23:42:40.626Z,38.80
2018-03-23T23:45:08.593Z,43.30
2018-03-23T23:47:36.467Z,40.37
2018-03-23T23:50:04.428Z,38.43
2018-03-23T23:52:32.183Z,42.30
2018-03-23T23:54:59.957Z,40.40
2018-03-23T23:57:27.816Z,38.60
2018-03-23T23:59:55.889Z,45.67
